Ingeniero Jacobacci, Argentina
Current Conditions -  °F | °C
As of 9:00 PM on Sunday 23 Nov 2014 (Local Time) from SAZS Reporting Station
Moderate Rain Moderate Rain  
Wind Chill:   Ceiling: 1500
Heat Index:   Visibility: 4mi
Dew Point:   Wind: 13mph
Humidity: 71%   Direction: 320°NW
Pressure: 29.85"   Gusts: NA
Location:  41.43°S, 69.47°W
Report Text: SAZS 240000Z 32011KT 6000 RA BKN015 SCT05007/02 Q1011
Loading
Personal Weather Stations






























Interactive Weather Map New forecast layout! Learn more

10-Day Weather Forecast

Advertisements
Track Severe Weather on mobile